Betagas — V2KA8 — position and weather

sailwx.info

Track history (hours):
 
Tides and Currents Weather Stations Pressure Air Temp Water Temp Dewpoint Dewpoint Depression Visibility Wind Speed Wind Dir Waves Ship Positions

Betagas

Last reported at 2014-Oct-01 05:26 UTC. Time now 2014-Oct-01 16:26 UTC.
Position N 47°59' W 005°11'.

Length 114.6 m; beam 15.7 m; draft 7.4 m.

Type: Tanker. MMSI: 304050636.

Date/timePositionNaut miles runAvg speedWind from/ knotsBaromVisibWave heightAir tempDewpointWater temp
2014-Oct-01 05:26N 47°59' W 005°11'1314.6
2014-Oct-01 04:32N 47°49' W 004°58'7514.4
2014-Sep-30 23:20N 47°11' W 003°22'  
2014-Sep-28 10:22N 50°00' W 002°50'7 9.2
2014-Sep-28 09:33N 50°02' W 002°39'3110.0
2014-Sep-28 06:29N 50°11' W 001°53'1713.2
2014-Sep-28 05:11N 50°16' W 001°27'4114.0
2014-Sep-28 02:15N 50°27' W 000°25'1412.1
2014-Sep-28 01:06N 50°31' W 000°04'611.0
2014-Sep-28 00:33N 50°32' E 000°05'1010.2
2014-Sep-27 23:33N 50°35' E 000°20'9 9.4
2014-Sep-27 22:33N 50°38' E 000°34'1010.3
2014-Sep-27 21:33N 50°44' E 000°48'1212.0
2014-Sep-27 20:32N 50°51' E 001°03'1313.3
2014-Sep-27 19:33N 50°60' E 001°19'1313.1
2014-Sep-27 18:33N 51°08' E 001°35'1111.3
2014-Sep-27 17:33N 51°16' E 001°47'1010.2
2014-Sep-27 16:33N 51°26' E 001°54'9 9.5
2014-Sep-27 15:33N 51°33' E 002°04'9 9.5
2014-Sep-27 14:33N 51°40' E 002°14'1010.0
2014-Sep-27 13:33N 51°47' E 002°26'1111.2
2014-Sep-27 12:33N 51°55' E 002°39'1211.6
2014-Sep-27 11:34N 52°02' E 002°53'1212.0
2014-Sep-27 10:33N 52°03' E 003°12'1212.2
2014-Sep-27 09:33N 52°03' E 003°32'1211.9
2014-Sep-27 08:33N 52°03' E 003°51'1312.5
2014-Sep-27 07:33N 51°57' E 004°09'2 2.0
2014-Sep-27 06:22N 51°55' E 004°12'0 0.0
2014-Sep-27 05:28N 51°55' E 004°12'0 0.0
2014-Sep-27 04:22N 51°55' E 004°12'0 0.0
2014-Sep-27 03:22N 51°55' E 004°12'0 0.0
2014-Sep-27 02:22N 51°55' E 004°12'0 0.0
2014-Sep-27 01:28N 51°55' E 004°12'0 0.0
2014-Sep-27 00:28N 51°55' E 004°12'0 0.0
2014-Sep-26 23:28N 51°55' E 004°12'0 0.0
2014-Sep-26 22:28N 51°55' E 004°12'0 0.0
2014-Sep-26 21:28N 51°55' E 004°12'0 0.0
2014-Sep-26 20:28N 51°55' E 004°12'0 0.0
2014-Sep-26 19:28N 51°55' E 004°12'0 0.0
2014-Sep-26 18:28N 51°55' E 004°12'0 0.0
2014-Sep-26 17:28N 51°55' E 004°12'0 0.0
2014-Sep-26 16:22N 51°55' E 004°12'0 0.0
2014-Sep-26 15:22N 51°55' E 004°12'0 0.0
2014-Sep-26 14:28N 51°55' E 004°12'0 0.0
2014-Sep-26 13:16N 51°55' E 004°12'0 0.0
2014-Sep-26 12:10N 51°55' E 004°12'0 0.0
2014-Sep-26 11:16N 51°55' E 004°12'0 0.0
2014-Sep-26 10:28N 51°55' E 004°12'5 5.1
2014-Sep-26 09:33N 51°58' E 004°06'1111.1
2014-Sep-26 08:33N 52°00' E 003°49'1412.6
2014-Sep-26 07:28N 51°57' E 003°27'4113.9
2014-Sep-26 04:33N 51°39' E 002°28'1716.0
2014-Sep-26 03:30N 51°26' E 002°12'1616.0
2014-Sep-26 02:29N 51°12' E 001°58'1617.4
2014-Sep-26 01:33N 51°02' E 001°38'4815.9
2014-Sep-25 22:33N 50°27' E 000°46'1716.8
2014-Sep-25 21:34N 50°23' E 000°21'  
2014-Sep-23 04:10N 38°09' W 009°47'1114.8
2014-Sep-23 03:25N 37°58' W 009°44'1314.8
2014-Sep-23 02:33N 37°46' W 009°40'23212.1
2014-Sep-22 07:27N 36°01' W 005°22'16910.3
2014-Sep-21 15:04N 36°28' W 001°55'812.0
2014-Sep-21 14:23N 36°29' W 001°45'4611.9
2014-Sep-21 10:31N 36°36' W 000°49'  
Track history (hours):
 
Tides and Currents Weather Stations Pressure Air Temp Water Temp Dewpoint Dewpoint Depression Visibility Wind Speed Wind Dir Waves Ship Positions

Betagas

Last reported at 2014-Oct-01 05:26 UTC. Time now 2014-Oct-01 16:26 UTC.
Position N 47°59' W 005°11'.

Length 114.6 m; beam 15.7 m; draft 7.4 m.

Type: Tanker. MMSI: 304050636.

Date/timePositionNaut miles runAvg speedWind from/ knotsBaromVisibWave heightAir tempDewpointWater temp
2014-Oct-01 05:26N 47°59' W 005°11'1314.6
2014-Oct-01 04:32N 47°49' W 004°58'7514.4
2014-Sep-30 23:20N 47°11' W 003°22'  
2014-Sep-28 10:22N 50°00' W 002°50'7 9.2
2014-Sep-28 09:33N 50°02' W 002°39'3110.0
2014-Sep-28 06:29N 50°11' W 001°53'1713.2
2014-Sep-28 05:11N 50°16' W 001°27'4114.0
2014-Sep-28 02:15N 50°27' W 000°25'1412.1
2014-Sep-28 01:06N 50°31' W 000°04'611.0
2014-Sep-28 00:33N 50°32' E 000°05'1010.2
2014-Sep-27 23:33N 50°35' E 000°20'9 9.4
2014-Sep-27 22:33N 50°38' E 000°34'1010.3
2014-Sep-27 21:33N 50°44' E 000°48'1212.0
2014-Sep-27 20:32N 50°51' E 001°03'1313.3
2014-Sep-27 19:33N 50°60' E 001°19'1313.1
2014-Sep-27 18:33N 51°08' E 001°35'1111.3
2014-Sep-27 17:33N 51°16' E 001°47'1010.2
2014-Sep-27 16:33N 51°26' E 001°54'9 9.5
2014-Sep-27 15:33N 51°33' E 002°04'9 9.5
2014-Sep-27 14:33N 51°40' E 002°14'1010.0
2014-Sep-27 13:33N 51°47' E 002°26'1111.2
2014-Sep-27 12:33N 51°55' E 002°39'1211.6
2014-Sep-27 11:34N 52°02' E 002°53'1212.0
2014-Sep-27 10:33N 52°03' E 003°12'1212.2
2014-Sep-27 09:33N 52°03' E 003°32'1211.9
2014-Sep-27 08:33N 52°03' E 003°51'1312.5
2014-Sep-27 07:33N 51°57' E 004°09'2 2.0
2014-Sep-27 06:22N 51°55' E 004°12'0 0.0
2014-Sep-27 05:28N 51°55' E 004°12'0 0.0
2014-Sep-27 04:22N 51°55' E 004°12'0 0.0
2014-Sep-27 03:22N 51°55' E 004°12'0 0.0
2014-Sep-27 02:22N 51°55' E 004°12'0 0.0
2014-Sep-27 01:28N 51°55' E 004°12'0 0.0
2014-Sep-27 00:28N 51°55' E 004°12'0 0.0
2014-Sep-26 23:28N 51°55' E 004°12'0 0.0
2014-Sep-26 22:28N 51°55' E 004°12'0 0.0
2014-Sep-26 21:28N 51°55' E 004°12'0 0.0
2014-Sep-26 20:28N 51°55' E 004°12'0 0.0
2014-Sep-26 19:28N 51°55' E 004°12'0 0.0
2014-Sep-26 18:28N 51°55' E 004°12'0 0.0
2014-Sep-26 17:28N 51°55' E 004°12'0 0.0
2014-Sep-26 16:22N 51°55' E 004°12'0 0.0
2014-Sep-26 15:22N 51°55' E 004°12'0 0.0
2014-Sep-26 14:28N 51°55' E 004°12'0 0.0
2014-Sep-26 13:16N 51°55' E 004°12'0 0.0
2014-Sep-26 12:10N 51°55' E 004°12'0 0.0
2014-Sep-26 11:16N 51°55' E 004°12'0 0.0
2014-Sep-26 10:28N 51°55' E 004°12'5 5.1
2014-Sep-26 09:33N 51°58' E 004°06'1111.1
2014-Sep-26 08:33N 52°00' E 003°49'1412.6
2014-Sep-26 07:28N 51°57' E 003°27'4113.9
2014-Sep-26 04:33N 51°39' E 002°28'1716.0
2014-Sep-26 03:30N 51°26' E 002°12'1616.0
2014-Sep-26 02:29N 51°12' E 001°58'1617.4
2014-Sep-26 01:33N 51°02' E 001°38'4815.9
2014-Sep-25 22:33N 50°27' E 000°46'1716.8
2014-Sep-25 21:34N 50°23' E 000°21'  
2014-Sep-23 04:10N 38°09' W 009°47'1114.8
2014-Sep-23 03:25N 37°58' W 009°44'1314.8
2014-Sep-23 02:33N 37°46' W 009°40'23212.1
2014-Sep-22 07:27N 36°01' W 005°22'16910.3
2014-Sep-21 15:04N 36°28' W 001°55'812.0
2014-Sep-21 14:23N 36°29' W 001°45'4611.9
2014-Sep-21 10:31N 36°36' W 000°49'  

Dump ship's entire track history